Time;durP1;ratioP1;P1;durP2;ratioP2;P2;SDS_P1;SDS_P2;PMS_P1;PMS_P2;Temp;Humidity;BMP_temperature;BMP_pressure;BME280_temperature;BME280_humidity;BME280_pressure;Samples;Min_cycle;Max_cycle;Signal;HPM_P1;HPM_P2
2021/12/19 00:02:09;;;;;;;3.43;2.23;;;5.30;99.90;;;;;;5107392;28;20236;-63
2021/12/19 00:04:53;;;;;;;6.13;2.10;;;5.40;99.90;;;;;;5107246;28;20670;-63
2021/12/19 00:10:05;;;;;;;4.90;2.13;;;5.30;99.90;;;;;;5106798;28;20180;-63
2021/12/19 00:12:32;;;;;;;3.53;2.20;;;5.30;99.90;;;;;;5107128;28;20210;-63
2021/12/19 00:14:59;;;;;;;3.97;2.20;;;5.30;99.90;;;;;;5106788;28;20211;-63
2021/12/19 00:17:26;;;;;;;4.20;2.03;;;5.30;99.90;;;;;;5107227;28;20205;-63
2021/12/19 00:19:54;;;;;;;3.60;2.17;;;5.30;99.90;;;;;;5106813;28;20310;-63
2021/12/19 00:22:21;;;;;;;3.33;2.37;;;5.30;99.90;;;;;;5105870;28;20200;-63
2021/12/19 00:24:48;;;;;;;2.77;2.00;;;5.30;99.90;;;;;;5105775;28;20268;-63
2021/12/19 00:27:15;;;;;;;4.90;2.83;;;5.20;99.90;;;;;;5106948;28;20200;-63
2021/12/19 00:29:41;;;;;;;3.23;2.03;;;5.20;99.90;;;;;;5105799;28;20212;-63
2021/12/19 00:32:08;;;;;;;3.37;2.07;;;5.30;99.90;;;;;;5107089;28;20359;-63
2021/12/19 00:34:35;;;;;;;3.13;1.97;;;5.30;99.90;;;;;;5106882;28;20224;-63
2021/12/19 00:37:03;;;;;;;3.70;2.00;;;5.30;99.90;;;;;;5107008;28;20235;-63
2021/12/19 00:39:30;;;;;;;3.90;2.00;;;5.30;99.90;;;;;;5105839;28;20280;-63
2021/12/19 00:41:57;;;;;;;2.97;2.00;;;5.20;99.90;;;;;;5106961;28;20267;-63
2021/12/19 00:44:25;;;;;;;4.33;2.23;;;5.20;99.90;;;;;;5105949;28;20228;-63
2021/12/19 00:47:04;;;;;;;3.57;1.97;;;5.10;99.90;;;;;;5106722;28;20215;-63
2021/12/19 00:49:31;;;;;;;4.87;1.87;;;5.10;99.90;;;;;;5106235;28;20196;-63
2021/12/19 00:51:58;;;;;;;3.67;2.17;;;5.10;99.90;;;;;;5106640;28;20264;-63
2021/12/19 00:54:26;;;;;;;2.70;1.90;;;5.10;99.90;;;;;;5105159;28;20214;-63
2021/12/19 00:56:53;;;;;;;3.03;1.73;;;5.10;99.90;;;;;;5106645;28;20291;-63
2021/12/19 00:59:21;;;;;;;3.20;1.70;;;5.10;99.90;;;;;;5105652;28;20251;-63
2021/12/19 01:01:48;;;;;;;4.57;2.00;;;5.10;99.90;;;;;;5106320;28;20315;-63
2021/12/19 01:04:18;;;;;;;3.97;1.97;;;5.10;99.90;;;;;;5105913;28;20200;-63
2021/12/19 01:06:46;;;;;;;4.73;2.50;;;5.10;99.90;;;;;;5106258;28;20214;-63
2021/12/19 01:09:14;;;;;;;4.47;2.87;;;5.20;99.90;;;;;;5105435;28;20204;-63
2021/12/19 01:11:47;;;;;;;6.17;2.27;;;5.20;99.90;;;;;;5106238;28;20207;-63
2021/12/19 01:14:14;;;;;;;5.03;2.27;;;5.10;99.90;;;;;;5105361;28;20208;-63
2021/12/19 01:16:41;;;;;;;2.40;1.53;;;5.10;99.90;;;;;;5106317;28;20291;-63
2021/12/19 01:19:08;;;;;;;3.83;2.23;;;5.10;99.90;;;;;;5105729;28;20231;-63
2021/12/19 01:21:34;;;;;;;6.57;3.10;;;5.00;99.90;;;;;;5106286;28;20288;-63
2021/12/19 01:24:01;;;;;;;3.50;2.40;;;5.00;99.90;;;;;;5104599;28;20208;-63
2021/12/19 01:26:28;;;;;;;4.67;2.97;;;4.90;99.90;;;;;;5106216;28;20287;-63
2021/12/19 01:28:56;;;;;;;4.70;2.00;;;4.90;99.90;;;;;;5105109;28;20228;-63
2021/12/19 01:31:23;;;;;;;5.13;2.60;;;4.90;99.90;;;;;;5105987;28;20211;-63
2021/12/19 01:33:50;;;;;;;5.03;2.57;;;4.90;99.90;;;;;;5105549;28;20235;-63
2021/12/19 01:36:18;;;;;;;4.10;2.70;;;4.90;99.90;;;;;;5105959;28;20291;-63
2021/12/19 01:38:45;;;;;;;6.10;3.13;;;4.80;99.90;;;;;;5104452;28;20658;-64
2021/12/19 01:41:12;;;;;;;4.13;2.20;;;4.80;99.90;;;;;;5105083;28;20201;-63
2021/12/19 01:43:39;;;;;;;4.77;2.83;;;4.80;99.90;;;;;;5104716;28;20215;-63
2021/12/19 01:46:07;;;;;;;7.60;2.60;;;4.70;99.90;;;;;;5105710;28;20283;-63
2021/12/19 01:48:34;;;;;;;6.30;3.00;;;4.70;99.90;;;;;;5105158;28;20200;-63
2021/12/19 01:51:01;;;;;;;4.43;3.47;;;4.80;99.90;;;;;;5105850;28;20204;-63
2021/12/19 01:53:28;;;;;;;5.63;2.90;;;4.90;99.90;;;;;;5104036;28;20214;-63
2021/12/19 01:55:56;;;;;;;5.93;3.00;;;4.80;99.90;;;;;;5105676;28;20204;-63
2021/12/19 01:58:23;;;;;;;5.30;2.53;;;4.80;99.90;;;;;;5104474;28;20210;-63
2021/12/19 02:00:52;;;;;;;5.30;2.73;;;4.80;99.90;;;;;;5105379;28;20204;-63
2021/12/19 02:03:20;;;;;;;4.70;2.70;;;4.80;99.90;;;;;;5104850;28;20228;-63
2021/12/19 02:05:47;;;;;;;5.13;2.97;;;4.80;99.90;;;;;;5105502;28;20568;-64
2021/12/19 02:08:14;;;;;;;6.47;3.03;;;4.70;99.90;;;;;;5104275;28;20200;-63
2021/12/19 02:10:43;;;;;;;3.80;3.07;;;4.70;99.90;;;;;;5105425;28;20204;-64
2021/12/19 02:13:12;;;;;;;4.30;2.20;;;4.70;99.90;;;;;;5104649;28;20239;-63
2021/12/19 02:15:40;;;;;;;5.63;3.20;;;4.70;99.90;;;;;;5105450;28;20259;-63
2021/12/19 02:18:10;;;;;;;6.47;2.70;;;4.70;99.90;;;;;;5104685;28;20200;-64
2021/12/19 02:20:40;;;;;;;3.43;2.20;;;4.70;99.90;;;;;;5105152;28;20240;-63
2021/12/19 02:23:09;;;;;;;4.13;2.37;;;4.70;99.90;;;;;;5104388;28;20283;-63
2021/12/19 02:25:36;;;;;;;4.50;3.10;;;4.60;99.90;;;;;;5104856;28;20197;-63
2021/12/19 02:28:04;;;;;;;6.23;3.07;;;4.60;99.90;;;;;;5104121;28;20214;-63
2021/12/19 02:30:31;;;;;;;4.77;3.07;;;4.60;99.90;;;;;;5104968;28;20656;-63
2021/12/19 02:32:57;;;;;;;4.53;2.70;;;4.60;99.90;;;;;;5104528;28;20651;-65
2021/12/19 02:35:28;;;;;;;4.83;2.93;;;4.50;99.90;;;;;;5105123;28;20259;-63
2021/12/19 02:49:22;;;;;;;3.47;2.50;;;4.40;99.90;;;;;;5104304;28;20627;-63
2021/12/19 02:51:49;;;;;;;3.90;2.70;;;4.40;99.90;;;;;;5105638;28;20200;-63
2021/12/19 02:54:18;;;;;;;5.67;2.87;;;4.40;99.90;;;;;;5107279;28;20235;-63
2021/12/19 02:56:45;;;;;;;4.37;2.73;;;4.40;99.90;;;;;;5108855;28;20288;-63
2021/12/19 02:59:12;;;;;;;5.50;2.60;;;4.40;99.90;;;;;;5107918;28;20234;-63
2021/12/19 03:01:38;;;;;;;3.77;2.63;;;4.50;99.90;;;;;;5108708;28;20323;-63
2021/12/19 03:04:06;;;;;;;4.87;2.73;;;4.50;99.90;;;;;;5108119;28;20243;-65
2021/12/19 03:06:33;;;;;;;3.77;2.13;;;4.50;99.90;;;;;;5108730;28;20226;-63
2021/12/19 03:09:05;;;;;;;3.73;2.40;;;4.40;99.90;;;;;;5107739;28;20193;-63
2021/12/19 03:19:48;;;;;;;2.70;2.07;;;4.40;99.90;;;;;;5076483;28;20224;-63
2021/12/19 03:22:14;;;;;;;4.80;1.80;;;4.40;99.90;;;;;;5108332;28;20200;-63
2021/12/19 03:24:41;;;;;;;3.37;2.00;;;4.50;99.90;;;;;;5106960;28;20271;-63
2021/12/19 03:27:09;;;;;;;3.13;2.13;;;4.50;99.90;;;;;;5108177;28;20295;-63
2021/12/19 03:29:36;;;;;;;4.37;2.07;;;4.50;99.90;;;;;;5107642;28;20224;-63
2021/12/19 03:32:03;;;;;;;3.10;1.70;;;4.50;99.90;;;;;;5108279;28;20283;-63
2021/12/19 03:34:32;;;;;;;2.43;1.63;;;4.50;99.90;;;;;;5107617;28;20211;-64
2021/12/19 03:36:59;;;;;;;2.90;1.80;;;4.50;99.90;;;;;;5108234;28;20247;-63
2021/12/19 03:39:34;;;;;;;2.20;1.40;;;4.50;99.90;;;;;;5106958;28;20252;-63
2021/12/19 03:42:01;;;;;;;3.47;2.30;;;4.50;99.90;;;;;;5106707;28;20192;-63
2021/12/19 03:44:29;;;;;;;2.27;1.70;;;4.50;99.90;;;;;;5107192;28;20215;-63
2021/12/19 03:46:56;;;;;;;2.83;1.63;;;4.50;99.90;;;;;;5108038;28;20204;-63
2021/12/19 03:49:24;;;;;;;3.10;1.93;;;4.50;99.90;;;;;;5107574;28;20283;-63
2021/12/19 03:51:50;;;;;;;3.80;2.07;;;4.50;99.90;;;;;;5108019;28;20205;-63
2021/12/19 03:54:17;;;;;;;2.23;1.93;;;4.50;99.90;;;;;;5106373;28;20275;-63
2021/12/19 03:56:44;;;;;;;3.17;1.80;;;4.50;99.90;;;;;;5107979;28;20201;-63
2021/12/19 03:59:11;;;;;;;2.97;1.93;;;4.60;99.90;;;;;;5106788;28;20311;-63
2021/12/19 04:01:42;;;;;;;4.60;1.67;;;4.60;99.90;;;;;;5107600;28;20259;-63
2021/12/19 04:04:09;;;;;;;2.67;1.83;;;4.60;99.90;;;;;;5106271;28;20333;-63
2021/12/19 04:06:36;;;;;;;2.60;1.43;;;4.50;99.90;;;;;;5107410;28;20200;-63
2021/12/19 04:09:03;;;;;;;3.40;1.83;;;4.50;99.90;;;;;;5106228;28;20211;-63
2021/12/19 04:11:30;;;;;;;2.67;1.93;;;4.60;99.90;;;;;;5107498;28;20224;-63
2021/12/19 04:13:57;;;;;;;3.20;1.80;;;4.60;99.90;;;;;;5106425;28;20200;-63
2021/12/19 04:16:24;;;;;;;4.17;2.40;;;4.60;99.90;;;;;;5107447;28;20267;-63
2021/12/19 04:18:52;;;;;;;5.50;2.50;;;4.50;99.90;;;;;;5107092;28;20272;-65
2021/12/19 04:21:19;;;;;;;3.57;2.20;;;4.60;99.90;;;;;;5107451;28;20204;-63
2021/12/19 04:23:46;;;;;;;4.70;2.10;;;4.60;99.90;;;;;;5105902;28;20196;-63
2021/12/19 04:26:13;;;;;;;4.67;2.20;;;4.50;99.90;;;;;;5107157;28;20204;-63
2021/12/19 04:28:40;;;;;;;5.10;2.00;;;4.50;99.90;;;;;;5106340;28;20205;-63
2021/12/19 04:31:07;;;;;;;3.17;1.60;;;4.60;99.90;;;;;;5107038;28;20264;-63
2021/12/19 04:33:36;;;;;;;3.50;2.00;;;4.60;99.90;;;;;;5106549;28;20296;-63
2021/12/19 04:36:07;;;;;;;3.73;1.93;;;4.60;99.90;;;;;;5107200;28;20204;-63
2021/12/19 04:41:48;;;;;;;3.93;2.30;;;4.60;99.90;;;;;;5104056;28;20227;-63
2021/12/19 04:52:58;;;;;;;3.13;1.90;;;4.70;99.90;;;;;;4965608;29;20256;-62
2021/12/19 04:58:24;;;;;;;5.47;2.60;;;4.80;99.90;;;;;;4964113;29;20197;-62
2021/12/19 05:01:03;;;;;;;4.60;2.40;;;4.80;99.90;;;;;;4965594;29;20228;-63
2021/12/19 05:03:41;;;;;;;4.13;2.10;;;4.80;99.90;;;;;;4965276;29;20240;-64
2021/12/19 05:06:15;;;;;;;2.90;1.67;;;4.80;99.90;;;;;;4965399;29;20272;-63
2021/12/19 05:14:15;;;;;;;4.43;2.47;;;4.80;99.90;;;;;;4964424;29;20244;-63
2021/12/19 05:16:44;;;;;;;4.83;2.67;;;4.80;99.90;;;;;;4965276;28;20205;-63
2021/12/19 05:19:23;;;;;;;5.47;2.37;;;4.80;99.90;;;;;;4964454;29;20567;-63
2021/12/19 05:21:53;;;;;;;5.73;2.33;;;4.80;99.90;;;;;;4965512;29;20648;-63
2021/12/19 05:24:43;;;;;;;4.93;2.40;;;4.80;99.90;;;;;;4963938;29;20280;-62
2021/12/19 05:27:10;;;;;;;4.90;2.50;;;4.80;99.90;;;;;;5043348;28;20770;-63
2021/12/19 05:29:38;;;;;;;6.23;2.43;;;4.80;99.90;;;;;;5069423;28;20220;-63
2021/12/19 05:32:06;;;;;;;5.43;2.77;;;4.80;99.90;;;;;;5105916;28;20196;-63
2021/12/19 05:34:33;;;;;;;4.73;2.10;;;4.80;99.90;;;;;;5105341;28;20208;-63
2021/12/19 05:45:16;;;;;;;5.60;2.33;;;4.80;99.90;;;;;;5104937;28;20203;-63
2021/12/19 05:47:43;;;;;;;6.40;3.00;;;4.80;99.90;;;;;;5105532;28;20215;-63
2021/12/19 05:50:10;;;;;;;6.03;2.77;;;4.80;99.90;;;;;;5105332;28;20203;-63
2021/12/19 05:52:38;;;;;;;4.67;2.80;;;4.80;99.90;;;;;;5105585;28;20287;-63
2021/12/19 05:55:07;;;;;;;2.60;2.13;;;4.80;99.90;;;;;;5104281;28;20693;-63
2021/12/19 05:57:35;;;;;;;6.13;2.90;;;4.80;99.90;;;;;;5105224;28;20610;-67
2021/12/19 06:00:02;;;;;;;5.77;2.90;;;4.80;99.90;;;;;;5104013;28;20227;-63
2021/12/19 06:02:29;;;;;;;8.43;3.63;;;4.80;99.90;;;;;;5103914;28;20222;-63
2021/12/19 06:04:56;;;;;;;6.87;3.80;;;4.80;99.90;;;;;;5104391;28;20203;-63
2021/12/19 06:07:23;;;;;;;6.53;3.03;;;4.80;99.90;;;;;;5105274;28;20273;-63
2021/12/19 06:09:50;;;;;;;8.33;3.70;;;4.80;99.90;;;;;;5104336;28;20248;-63
2021/12/19 06:12:18;;;;;;;7.87;3.63;;;4.80;99.90;;;;;;5105029;28;20274;-64
2021/12/19 06:14:45;;;;;;;8.70;3.23;;;4.80;99.90;;;;;;5104550;28;20374;-63
2021/12/19 06:17:12;;;;;;;7.93;3.43;;;4.80;99.90;;;;;;5105273;28;20643;-64
2021/12/19 06:19:39;;;;;;;8.73;3.17;;;4.80;99.90;;;;;;5104443;28;20230;-63
2021/12/19 06:22:08;;;;;;;7.20;3.67;;;4.80;99.90;;;;;;5105172;28;20206;-63
2021/12/19 06:24:35;;;;;;;7.63;3.30;;;4.80;99.90;;;;;;5103480;28;20211;-64
2021/12/19 06:27:03;;;;;;;7.53;3.90;;;4.80;99.90;;;;;;5101882;28;20192;-63
2021/12/19 06:29:33;;;;;;;6.87;3.70;;;4.80;99.90;;;;;;5102783;28;20193;-64
2021/12/19 06:32:00;;;;;;;9.53;4.73;;;4.80;99.90;;;;;;5105089;28;20200;-64
2021/12/19 06:34:27;;;;;;;7.47;3.47;;;4.80;99.90;;;;;;5103915;28;20196;-64
2021/12/19 06:36:54;;;;;;;7.23;3.43;;;4.80;99.90;;;;;;5104704;28;20549;-64
2021/12/19 06:39:21;;;;;;;7.10;3.57;;;4.80;99.90;;;;;;5103348;28;20197;-66
2021/12/19 06:41:48;;;;;;;6.87;3.83;;;4.80;99.90;;;;;;5104645;28;20218;-65
2021/12/19 06:44:15;;;;;;;11.27;4.50;;;4.80;99.90;;;;;;5103732;28;20291;-66
2021/12/19 06:46:43;;;;;;;6.03;2.83;;;4.80;99.90;;;;;;5105063;28;20196;-64
2021/12/19 06:49:11;;;;;;;11.20;4.27;;;4.80;99.90;;;;;;5104499;28;20200;-63
2021/12/19 06:51:38;;;;;;;8.90;3.67;;;4.80;99.90;;;;;;5104943;28;20200;-63
2021/12/19 06:54:04;;;;;;;6.90;3.53;;;4.90;99.90;;;;;;5103185;28;20211;-63
2021/12/19 06:56:31;;;;;;;11.00;4.83;;;4.90;99.90;;;;;;5105206;28;20234;-62
2021/12/19 06:58:58;;;;;;;11.30;4.00;;;4.90;99.90;;;;;;5103774;28;20304;-64
2021/12/19 07:01:25;;;;;;;9.50;3.73;;;4.90;99.90;;;;;;5104800;28;20225;-65
2021/12/19 07:03:53;;;;;;;10.83;4.50;;;4.90;99.90;;;;;;5104499;28;20235;-63
2021/12/19 07:06:20;;;;;;;10.23;4.30;;;4.90;99.90;;;;;;5105004;28;20196;-64
2021/12/19 07:08:47;;;;;;;9.67;3.87;;;4.90;99.90;;;;;;5103783;28;20212;-64
2021/12/19 07:11:15;;;;;;;5.93;3.70;;;4.90;99.90;;;;;;5104689;28;20200;-64
2021/12/19 07:13:42;;;;;;;9.90;3.93;;;4.90;99.90;;;;;;5103877;28;20210;-65
2021/12/19 07:16:08;;;;;;;8.73;4.43;;;4.90;99.90;;;;;;5104865;28;20200;-64
2021/12/19 07:18:36;;;;;;;7.80;5.27;;;4.90;99.90;;;;;;5104226;28;20654;-64
2021/12/19 07:21:05;;;;;;;7.37;3.87;;;5.00;99.90;;;;;;5103964;28;20698;-65
2021/12/19 07:23:32;;;;;;;9.63;4.30;;;5.00;99.90;;;;;;5099582;28;20207;-75
2021/12/19 07:25:59;;;;;;;12.07;4.17;;;5.00;99.90;;;;;;5103484;28;20196;-65
2021/12/19 07:28:26;;;;;;;8.83;4.37;;;5.00;99.90;;;;;;5102703;28;20203;-65
2021/12/19 07:30:53;;;;;;;8.60;3.73;;;5.00;99.90;;;;;;5103927;28;20275;-64
2021/12/19 07:33:20;;;;;;;10.67;4.13;;;5.00;99.90;;;;;;5103486;28;20235;-67
2021/12/19 07:35:48;;;;;;;10.50;4.87;;;5.00;99.90;;;;;;5104099;28;20771;-64
2021/12/19 07:38:24;;;;;;;8.23;4.47;;;5.00;99.90;;;;;;5102930;28;20196;-64
2021/12/19 07:40:51;;;;;;;8.70;3.90;;;5.00;99.90;;;;;;5105917;28;20677;-64
2021/12/19 07:43:18;;;;;;;11.07;3.40;;;5.00;99.90;;;;;;5106535;28;20218;-63
2021/12/19 07:45:45;;;;;;;9.30;4.27;;;5.00;99.90;;;;;;5107296;28;20197;-64
2021/12/19 07:48:12;;;;;;;8.43;3.90;;;5.00;99.90;;;;;;5107076;28;20223;-63
2021/12/19 07:50:39;;;;;;;12.87;4.77;;;5.00;99.90;;;;;;5107567;28;20193;-64
2021/12/19 07:53:07;;;;;;;8.90;3.40;;;5.00;99.90;;;;;;5106421;28;20260;-64
2021/12/19 07:55:36;;;;;;;6.93;2.93;;;5.00;99.90;;;;;;5105781;28;20193;-65
2021/12/19 07:58:03;;;;;;;52.07;20.73;;;5.00;99.90;;;;;;5103723;28;20227;-65
2021/12/19 08:00:29;;;;;;;11.10;5.53;;;5.00;99.90;;;;;;5106417;28;20516;-64
2021/12/19 08:02:56;;;;;;;12.70;4.10;;;5.10;99.90;;;;;;5106795;28;20316;-64
2021/12/19 08:05:23;;;;;;;9.87;4.20;;;5.10;99.90;;;;;;5104114;28;20201;-64
2021/12/19 08:07:56;;;;;;;12.70;4.90;;;5.10;99.90;;;;;;5106062;28;20204;-63
2021/12/19 08:13:09;;;;;;;10.23;5.30;;;5.00;99.90;;;;;;5104331;28;20202;-66
2021/12/19 08:15:38;;;;;;;7.77;3.63;;;5.10;99.90;;;;;;5106668;28;20192;-65
2021/12/19 08:18:06;;;;;;;7.83;3.87;;;5.10;99.90;;;;;;5106728;28;20197;-64
2021/12/19 08:20:33;;;;;;;6.93;3.17;;;5.10;99.90;;;;;;5106322;28;20208;-64
2021/12/19 08:23:01;;;;;;;12.10;4.37;;;5.10;99.90;;;;;;5106041;28;20283;-64
2021/12/19 08:25:28;;;;;;;7.90;3.87;;;5.10;99.90;;;;;;5106071;28;20260;-64
2021/12/19 08:27:56;;;;;;;11.97;3.87;;;5.10;99.90;;;;;;5106474;28;20226;-64
2021/12/19 08:30:24;;;;;;;9.70;4.37;;;5.10;99.90;;;;;;5103530;28;20193;-64
2021/12/19 08:32:55;;;;;;;5.87;3.33;;;5.20;99.90;;;;;;5106718;28;20265;-64
2021/12/19 08:35:23;;;;;;;8.47;3.90;;;5.10;99.90;;;;;;5106049;28;20200;-64
2021/12/19 08:37:50;;;;;;;7.10;3.93;;;5.10;99.90;;;;;;5105800;28;20615;-64
2021/12/19 08:40:17;;;;;;;10.57;4.23;;;5.20;99.90;;;;;;5106144;28;20200;-65
2021/12/19 08:42:44;;;;;;;11.07;4.30;;;5.20;99.90;;;;;;5106471;28;20585;-64
2021/12/19 08:45:11;;;;;;;12.83;4.73;;;5.20;99.90;;;;;;5105610;28;20197;-65
2021/12/19 08:47:40;;;;;;;13.10;4.93;;;5.20;99.90;;;;;;5106535;28;20196;-64
2021/12/19 08:50:09;;;;;;;30.67;13.83;;;5.20;99.90;;;;;;5105425;28;20199;-64
2021/12/19 08:52:37;;;;;;;7.77;4.03;;;5.20;99.90;;;;;;5106607;28;20185;-65
2021/12/19 08:55:05;;;;;;;9.17;4.23;;;5.30;99.90;;;;;;5104652;28;20301;-64
2021/12/19 08:57:32;;;;;;;12.47;4.67;;;5.30;99.90;;;;;;5106053;28;20268;-64
2021/12/19 08:59:59;;;;;;;11.77;4.67;;;5.30;99.90;;;;;;5105185;28;20675;-63
2021/12/19 09:02:26;;;;;;;10.43;4.60;;;5.30;99.90;;;;;;5105801;28;20220;-64
2021/12/19 09:04:54;;;;;;;13.77;6.00;;;5.30;99.90;;;;;;5105649;28;20660;-64
2021/12/19 09:07:21;;;;;;;13.37;4.73;;;5.40;99.90;;;;;;5105701;28;20192;-64
2021/12/19 09:09:49;;;;;;;8.67;3.80;;;5.40;99.90;;;;;;5104680;28;20228;-64
2021/12/19 09:12:16;;;;;;;8.23;3.37;;;5.40;99.90;;;;;;5106354;28;20203;-65
2021/12/19 09:14:44;;;;;;;8.27;3.60;;;5.40;99.90;;;;;;5105265;28;20206;-64
2021/12/19 09:17:11;;;;;;;9.97;4.90;;;5.30;99.90;;;;;;5106367;28;20228;-65
2021/12/19 09:19:38;;;;;;;8.87;3.97;;;5.30;99.90;;;;;;5105121;28;20200;-65
2021/12/19 09:22:07;;;;;;;8.37;4.47;;;5.40;99.90;;;;;;5105791;28;20701;-64
2021/12/19 09:24:34;;;;;;;6.80;4.03;;;5.40;99.90;;;;;;5104025;28;20201;-65
2021/12/19 09:27:03;;;;;;;8.67;3.57;;;5.40;99.90;;;;;;5105658;28;20279;-65
2021/12/19 09:29:30;;;;;;;10.47;3.70;;;5.40;99.90;;;;;;5104557;28;20204;-65
2021/12/19 09:31:58;;;;;;;8.07;3.33;;;5.50;99.90;;;;;;5106174;28;20196;-65
2021/12/19 09:34:26;;;;;;;9.23;4.13;;;5.50;99.90;;;;;;5105452;28;20212;-65
2021/12/19 09:36:53;;;;;;;7.63;3.63;;;5.50;99.90;;;;;;5106219;28;20238;-65
2021/12/19 09:39:21;;;;;;;7.60;3.40;;;5.50;99.90;;;;;;5104624;28;20329;-64
2021/12/19 09:41:53;;;;;;;16.93;7.73;;;5.50;99.90;;;;;;5105758;28;20240;-64
2021/12/19 09:44:21;;;;;;;13.53;5.40;;;5.50;99.90;;;;;;5105017;28;20208;-64
2021/12/19 09:46:51;;;;;;;7.37;4.77;;;5.60;99.90;;;;;;5105795;28;20234;-64
2021/12/19 09:49:19;;;;;;;10.17;4.80;;;5.60;99.90;;;;;;5105305;28;20211;-63
2021/12/19 09:51:48;;;;;;;13.37;4.70;;;5.60;99.90;;;;;;5105787;28;20235;-64
2021/12/19 09:54:15;;;;;;;6.03;3.40;;;5.60;99.90;;;;;;5103996;28;20204;-64
2021/12/19 09:56:44;;;;;;;7.90;3.73;;;5.60;99.90;;;;;;5105347;28;20267;-65
2021/12/19 09:59:12;;;;;;;10.30;4.07;;;5.60;99.90;;;;;;5104118;28;20230;-65
2021/12/19 10:01:40;;;;;;;8.83;3.97;;;5.60;99.90;;;;;;5103793;28;20228;-64
2021/12/19 10:04:33;;;;;;;6.90;3.90;;;5.70;99.90;;;;;;5105133;28;20204;-64
2021/12/19 10:07:19;;;;;;;7.63;3.53;;;5.70;99.90;;;;;;5105421;28;20204;-65
2021/12/19 10:10:00;;;;;;;8.67;3.87;;;5.70;99.90;;;;;;5103764;28;20257;-65
2021/12/19 10:12:38;;;;;;;7.83;3.43;;;5.70;99.90;;;;;;5104986;28;20623;-64
2021/12/19 10:15:09;;;;;;;8.97;4.43;;;5.70;99.90;;;;;;5104462;28;20398;-64
2021/12/19 10:17:36;;;;;;;10.97;3.60;;;5.70;99.90;;;;;;5102387;28;20200;-63
2021/12/19 10:20:06;;;;;;;8.83;3.97;;;5.70;99.90;;;;;;5104511;28;20282;-63
2021/12/19 10:22:34;;;;;;;10.93;3.43;;;5.80;99.90;;;;;;5101979;28;20268;-63
2021/12/19 10:25:20;;;;;;;10.17;4.67;;;5.80;99.90;;;;;;5103058;28;20288;-64
2021/12/19 10:27:51;;;;;;;11.00;4.50;;;5.80;99.90;;;;;;5103660;28;20264;-63
2021/12/19 10:30:22;;;;;;;12.90;4.47;;;5.80;99.90;;;;;;5103791;28;20211;-64
2021/12/19 10:32:55;;;;;;;11.37;4.13;;;5.80;99.90;;;;;;5104407;28;20275;-63
2021/12/19 10:35:25;;;;;;;9.90;3.83;;;5.80;99.90;;;;;;5102268;28;20285;-64
2021/12/19 10:37:52;;;;;;;9.27;4.37;;;5.80;99.90;;;;;;5103781;28;20261;-64
2021/12/19 10:40:19;;;;;;;9.70;4.53;;;5.80;99.90;;;;;;5101711;28;20204;-63
2021/12/19 10:42:50;;;;;;;8.53;4.07;;;5.80;99.90;;;;;;5104023;28;20216;-64
2021/12/19 10:45:35;;;;;;;8.77;3.80;;;5.80;99.90;;;;;;5104011;28;20205;-64
2021/12/19 10:48:23;;;;;;;11.53;4.17;;;5.80;99.90;;;;;;5102289;28;20191;-63
2021/12/19 10:50:57;;;;;;;11.87;5.33;;;5.80;99.90;;;;;;5105011;28;20359;-62
2021/12/19 10:53:28;;;;;;;10.83;3.90;;;5.80;99.90;;;;;;5103396;28;20630;-63
2021/12/19 10:55:56;;;;;;;10.80;4.23;;;5.80;99.90;;;;;;5105150;28;20200;-63
2021/12/19 10:58:29;;;;;;;8.77;3.60;;;5.80;99.90;;;;;;5104577;28;20215;-63
2021/12/19 11:01:14;;;;;;;7.83;4.20;;;5.80;99.90;;;;;;5104687;28;20562;-63
2021/12/19 11:03:55;;;;;;;8.83;4.37;;;5.90;99.90;;;;;;5103051;28;20204;-63
2021/12/19 11:06:40;;;;;;;13.80;4.63;;;5.90;99.90;;;;;;5104294;28;20283;-64
2021/12/19 11:09:10;;;;;;;11.43;4.73;;;5.90;99.90;;;;;;5102200;28;20232;-63
2021/12/19 11:11:58;;;;;;;7.57;3.73;;;5.90;99.90;;;;;;5100263;28;20694;-63
2021/12/19 11:14:29;;;;;;;9.63;5.03;;;5.90;99.90;;;;;;5102893;28;20732;-63
2021/12/19 11:16:59;;;;;;;8.87;3.83;;;5.90;99.90;;;;;;5103644;28;20195;-64
2021/12/19 11:19:28;;;;;;;9.40;3.43;;;5.90;99.90;;;;;;5104745;28;20192;-63
2021/12/19 11:21:55;;;;;;;12.13;3.83;;;6.00;99.90;;;;;;5103272;28;20213;-63
2021/12/19 11:24:26;;;;;;;10.50;4.40;;;5.90;99.90;;;;;;5103501;28;20207;-63
2021/12/19 11:26:56;;;;;;;11.17;3.97;;;7.20;99.90;;;;;;5103584;28;20192;-63
2021/12/19 11:29:24;;;;;;;8.47;4.40;;;5.90;99.90;;;;;;5103788;28;20209;-63
2021/12/19 11:31:57;;;;;;;8.37;3.63;;;5.90;99.90;;;;;;5105043;28;20188;-63
2021/12/19 11:34:29;;;;;;;7.67;3.30;;;5.90;99.90;;;;;;5104413;28;20196;-65
2021/12/19 11:37:01;;;;;;;9.13;4.27;;;5.80;99.90;;;;;;5105423;28;20196;-63
2021/12/19 11:39:32;;;;;;;10.67;3.30;;;5.90;99.90;;;;;;5103594;28;20208;-64
2021/12/19 11:42:09;;;;;;;9.23;3.07;;;5.90;99.90;;;;;;5106383;28;20236;-63
2021/12/19 11:44:40;;;;;;;8.43;4.20;;;5.80;99.90;;;;;;5103775;28;20204;-63
2021/12/19 11:47:14;;;;;;;7.63;3.57;;;5.80;99.90;;;;;;5106497;28;20193;-63
2021/12/19 11:49:41;;;;;;;12.03;3.53;;;5.80;99.90;;;;;;5104707;28;20200;-63
2021/12/19 11:52:29;;;;;;;7.90;3.67;;;5.90;99.90;;;;;;5106148;28;20250;-63
2021/12/19 11:55:29;;;;;;;9.00;3.77;;;5.90;99.90;;;;;;5103157;28;20331;-63
2021/12/19 11:58:16;;;;;;;13.47;4.30;;;5.90;99.90;;;;;;5104330;28;20208;-64
2021/12/19 12:00:50;;;;;;;9.33;3.70;;;5.90;99.90;;;;;;5105473;28;20204;-64
2021/12/19 12:03:44;;;;;;;21.10;9.70;;;5.90;99.90;;;;;;5103790;28;20224;-64
2021/12/19 12:06:42;;;;;;;8.03;4.00;;;5.90;99.90;;;;;;5105870;28;20275;-64
2021/12/19 12:09:20;;;;;;;8.10;3.60;;;5.90;99.90;;;;;;5103946;28;20291;-64
2021/12/19 12:12:15;;;;;;;10.40;4.70;;;5.80;99.90;;;;;;5105082;28;20176;-64
2021/12/19 12:14:53;;;;;;;7.63;3.90;;;5.80;99.90;;;;;;5103991;28;20200;-64
2021/12/19 12:17:27;;;;;;;8.10;4.53;;;5.80;99.90;;;;;;5104520;28;20192;-64
2021/12/19 12:19:59;;;;;;;5.83;3.17;;;5.80;99.90;;;;;;5103340;28;20200;-64
2021/12/19 12:22:31;;;;;;;9.83;4.67;;;5.70;99.90;;;;;;5104819;28;20204;-64
2021/12/19 12:25:14;;;;;;;9.30;3.73;;;5.70;99.90;;;;;;5102455;28;20204;-64
2021/12/19 12:27:44;;;;;;;5.43;3.40;;;5.80;99.90;;;;;;5103757;28;20212;-64
2021/12/19 12:30:13;;;;;;;10.33;4.13;;;5.80;99.90;;;;;;5103975;28;20254;-70
2021/12/19 12:32:40;;;;;;;6.87;2.90;;;5.80;99.90;;;;;;5105019;28;20188;-63
2021/12/19 12:35:11;;;;;;;6.30;2.80;;;5.80;99.90;;;;;;5104849;28;20200;-64
2021/12/19 12:37:39;;;;;;;5.07;3.50;;;5.80;99.90;;;;;;5105110;28;20260;-64
2021/12/19 12:40:19;;;;;;;7.53;3.80;;;5.80;99.90;;;;;;5104699;28;20235;-63
2021/12/19 12:43:09;;;;;;;6.80;3.50;;;5.80;99.90;;;;;;5103324;28;20226;-63
2021/12/19 12:46:07;;;;;;;8.03;3.07;;;5.80;99.90;;;;;;5085836;28;20236;-64
2021/12/19 12:48:38;;;;;;;6.20;3.83;;;5.80;99.90;;;;;;5085786;28;20207;-64
2021/12/19 12:51:08;;;;;;;7.20;3.73;;;5.70;99.90;;;;;;5086046;28;20211;-65
2021/12/19 12:53:38;;;;;;;8.30;4.20;;;5.70;99.90;;;;;;5085231;28;20265;-64
2021/12/19 12:56:12;;;;;;;8.87;3.87;;;5.80;99.90;;;;;;5086354;28;20202;-64
2021/12/19 12:58:42;;;;;;;7.57;3.77;;;5.80;99.90;;;;;;5105692;28;20239;-63
2021/12/19 13:01:29;;;;;;;8.20;3.40;;;5.80;99.90;;;;;;5103099;28;20231;-63
2021/12/19 13:04:04;;;;;;;6.27;3.43;;;5.80;99.90;;;;;;5097394;28;20207;-63
2021/12/19 13:06:47;;;;;;;8.53;4.00;;;5.70;99.90;;;;;;5105222;28;20184;-64
2021/12/19 13:09:17;;;;;;;7.37;3.67;;;5.70;99.90;;;;;;5103315;28;20188;-63
2021/12/19 13:11:46;;;;;;;10.30;4.37;;;5.70;99.90;;;;;;5105566;28;20185;-64
2021/12/19 13:14:18;;;;;;;20.23;5.27;;;5.60;99.90;;;;;;5104299;28;20203;-64
2021/12/19 13:16:51;;;;;;;7.80;3.37;;;5.60;99.90;;;;;;5106258;28;20208;-65
2021/12/19 13:19:42;;;;;;;5.93;3.77;;;5.70;99.90;;;;;;5104805;28;20200;-64
2021/12/19 13:22:13;;;;;;;10.53;6.03;;;5.70;99.90;;;;;;5105983;28;20232;-64
2021/12/19 13:24:41;;;;;;;7.27;3.73;;;5.70;99.90;;;;;;5104559;28;20208;-63
2021/12/19 13:27:11;;;;;;;8.93;4.40;;;5.70;99.90;;;;;;5106304;28;20279;-64
2021/12/19 13:29:39;;;;;;;7.93;4.07;;;5.60;99.90;;;;;;5105260;28;20571;-64
2021/12/19 13:32:34;;;;;;;8.83;4.03;;;5.50;99.90;;;;;;5106265;28;20192;-64
2021/12/19 13:35:04;;;;;;;8.97;4.57;;;5.60;99.90;;;;;;5042548;28;20274;-64
2021/12/19 13:37:34;;;;;;;5.67;2.80;;;5.60;99.90;;;;;;5043118;28;20197;-64
2021/12/19 13:40:13;;;;;;;8.93;4.00;;;5.60;99.90;;;;;;5042189;28;20206;-65
2021/12/19 13:42:45;;;;;;;6.80;3.53;;;5.60;99.90;;;;;;5042874;28;20210;-64
2021/12/19 13:45:38;;;;;;;7.93;4.93;;;5.60;99.90;;;;;;5042438;28;20712;-64
2021/12/19 13:48:10;;;;;;;7.30;3.93;;;5.50;99.90;;;;;;5043058;28;20246;-64
2021/12/19 13:50:41;;;;;;;10.00;4.10;;;5.50;99.90;;;;;;5043010;28;20230;-65
2021/12/19 13:53:12;;;;;;;6.60;3.20;;;5.50;99.90;;;;;;5041920;28;20187;-64
2021/12/19 13:55:49;;;;;;;9.53;3.50;;;5.50;99.90;;;;;;5042295;28;20313;-64
2021/12/19 13:58:17;;;;;;;11.10;3.77;;;5.40;99.90;;;;;;5041847;28;20286;-64
2021/12/19 14:00:48;;;;;;;6.03;2.70;;;5.40;99.90;;;;;;5041184;28;20202;-63
2021/12/19 14:03:15;;;;;;;8.20;3.60;;;5.40;99.90;;;;;;5041951;28;20337;-66
2021/12/19 14:05:45;;;;;;;8.53;3.77;;;5.30;99.90;;;;;;5042324;28;20237;-63